-7.94C
облачно с прояснениями
облачно с прояснениями
Дата и времяТемператураДавление, мм рт.ст.Влажность, %Осадки
МинимумМаксимум
04.12.2022 17:00-14.82C-10.23C77794облачно с прояснениями
04.12.2022 20:00-18.58C-15.03C77797переменная облачность
04.12.2022 23:00-21.31C-21.31C780100переменная облачность
05.12.2022 02:00-21.96C-21.96C780100облачно с прояснениями
05.12.2022 05:00-21.89C-21.89C780100облачно с прояснениями
05.12.2022 08:00-19.7C-19.7C78099пасмурно
05.12.2022 11:00-17.32C-17.32C78195пасмурно
05.12.2022 14:00-16.04C-16.04C78095пасмурно
05.12.2022 17:00-17.57C-17.57C78098пасмурно
05.12.2022 20:00-19.08C-19.08C78099пасмурно
05.12.2022 23:00-20.15C-20.15C780100пасмурно
06.12.2022 02:00-20.85C-20.85C779100пасмурно
06.12.2022 05:00-20.69C-20.69C778100пасмурно
06.12.2022 08:00-19.91C-19.91C77899пасмурно
06.12.2022 11:00-18.99C-18.99C77898пасмурно
06.12.2022 14:00-17.16C-17.16C77796облачно с прояснениями
06.12.2022 17:00-18.52C-18.52C77798облачно с прояснениями
06.12.2022 20:00-18.8C-18.8C77798облачно с прояснениями
06.12.2022 23:00-18.95C-18.95C77697облачно с прояснениями
07.12.2022 02:00-19.03C-19.03C77597облачно с прояснениями
07.12.2022 05:00-18.71C-18.71C77498облачно с прояснениями
07.12.2022 08:00-18.64C-18.64C77398облачно с прояснениями
07.12.2022 11:00-17.42C-17.42C77196облачно с прояснениями
07.12.2022 14:00-15.87C-15.87C77095облачно с прояснениями
07.12.2022 17:00-15.53C-15.53C76890облачно с прояснениями
07.12.2022 20:00-14.28C-14.28C76686пасмурно
07.12.2022 23:00-11.94C-11.94C76584пасмурно
08.12.2022 02:00-11.18C-11.18C76487пасмурно
08.12.2022 05:00-11.51C-11.51C76495небольшой снег
08.12.2022 08:00-13.48C-13.48C76497пасмурно
08.12.2022 11:00-15.23C-15.23C76598пасмурно
08.12.2022 14:00-16.05C-16.05C76597облачно с прояснениями
08.12.2022 17:00-16.99C-16.99C76598облачно с прояснениями
08.12.2022 20:00-15.19C-15.19C76596облачно с прояснениями
08.12.2022 23:00-15.83C-15.83C76597облачно с прояснениями
09.12.2022 02:00-14.91C-14.91C76597пасмурно
09.12.2022 05:00-12.98C-12.98C76597пасмурно
09.12.2022 08:00-12.3C-12.3C76596пасмурно
09.12.2022 11:00-11.09C-11.09C76694пасмурно
09.12.2022 14:00-12.2C-12.2C76891небольшой снег
Дата и время наблюдения: 04.12.2022 14:13:02